Time;durP1;ratioP1;P1;durP2;ratioP2;P2;SDS_P1;SDS_P2;PMS_P1;PMS_P2;Temp;Humidity;BMP_temperature;BMP_pressure;BME280_temperature;BME280_humidity;BME280_pressure;Samples;Min_cycle;Max_cycle;Signal;HPM_P1;HPM_P2
2022/07/01 00:01:58;;;;;;;3.33;1.45;;;;;;;29.57;42.51;101202.75;5048749;28;20021;-68
2022/07/01 00:04:27;;;;;;;2.33;1.52;;;;;;;29.55;42.61;101216.28;5048936;28;20028;-68
2022/07/01 00:06:56;;;;;;;1.75;1.40;;;;;;;29.55;42.31;101236.91;5047880;28;20032;-67
2022/07/01 00:09:21;;;;;;;2.45;1.40;;;;;;;29.53;42.18;101234.28;5047775;28;20025;-68
2022/07/01 00:11:47;;;;;;;2.05;1.23;;;;;;;29.53;42.70;101244.19;5048286;28;20044;-68
2022/07/01 00:14:13;;;;;;;3.35;1.55;;;;;;;29.54;42.58;101245.91;5048331;28;20032;-68
2022/07/01 00:16:38;;;;;;;2.30;1.50;;;;;;;29.53;42.31;101242.34;5048603;28;20051;-68
2022/07/01 00:19:04;;;;;;;2.28;1.52;;;;;;;29.53;42.27;101238.81;5046912;28;20029;-67
2022/07/01 00:21:30;;;;;;;1.50;1.30;;;;;;;29.53;42.43;101236.13;5048472;28;20029;-68
2022/07/01 00:23:55;;;;;;;1.65;1.23;;;;;;;29.50;42.26;101226.44;5047957;28;20032;-68
2022/07/01 00:26:20;;;;;;;3.17;1.40;;;;;;;29.50;42.18;101226.44;5048173;28;20095;-68
2022/07/01 00:28:46;;;;;;;1.90;1.40;;;;;;;29.49;42.27;101213.97;5038123;28;20032;-68
2022/07/01 00:31:11;;;;;;;1.70;1.38;;;;;;;29.50;42.23;101225.56;5048109;28;20033;-68
2022/07/01 00:33:37;;;;;;;1.77;1.30;;;;;;;29.47;42.18;101220.38;5047979;28;20036;-68
2022/07/01 00:36:02;;;;;;;1.73;1.25;;;;;;;29.47;42.26;101228.44;5048363;28;20025;-68
2022/07/01 00:38:27;;;;;;;1.52;1.17;;;;;;;29.55;42.10;101224.34;5047104;28;20033;-68
2022/07/01 00:40:54;;;;;;;2.50;1.50;;;;;;;29.57;42.10;101227.81;5048080;28;20036;-68
2022/07/01 00:43:22;;;;;;;1.67;1.20;;;;;;;29.57;42.41;101243.94;5047603;28;20076;-68
2022/07/01 00:45:49;;;;;;;2.25;1.40;;;;;;;29.56;42.17;101244.00;5048015;28;20044;-68
2022/07/01 00:48:15;;;;;;;2.13;1.42;;;;;;;29.56;42.41;101235.94;5048279;28;20032;-68
2022/07/01 00:50:40;;;;;;;1.60;1.30;;;;;;;29.54;42.31;101235.16;5047974;28;20037;-68
2022/07/01 00:53:06;;;;;;;2.15;1.30;;;;;;;29.54;42.45;101237.84;5047889;28;20598;-67
2022/07/01 00:55:31;;;;;;;3.63;1.48;;;;;;;29.53;42.38;101237.00;5043708;28;20479;-68
2022/07/01 00:57:57;;;;;;;1.80;1.30;;;;;;;29.53;42.41;101215.50;5048146;28;20029;-68
2022/07/01 01:00:23;;;;;;;1.70;1.40;;;;;;;29.55;42.42;101197.47;5048009;28;20025;-68
2022/07/01 01:02:49;;;;;;;2.00;1.25;;;;;;;29.54;42.29;101198.41;5048088;28;20037;-68
2022/07/01 01:05:14;;;;;;;1.55;1.20;;;;;;;29.54;41.98;101189.50;5047915;28;20035;-68
2022/07/01 01:07:39;;;;;;;2.15;1.20;;;;;;;29.53;42.38;101185.94;5043169;28;20032;-68
2022/07/01 01:10:05;;;;;;;1.73;1.30;;;;;;;29.53;42.34;101185.06;5047904;28;20115;-68
2022/07/01 01:12:31;;;;;;;1.35;1.20;;;;;;;29.52;41.99;101194.13;5047916;28;20033;-67
2022/07/01 01:14:57;;;;;;;3.42;1.30;;;;;;;29.51;42.02;101190.56;5047978;28;20544;-68
2022/07/01 01:17:23;;;;;;;1.65;1.20;;;;;;;29.49;42.37;101187.09;5047245;28;20060;-67
2022/07/01 01:19:51;;;;;;;1.20;1.10;;;;;;;29.49;41.99;101189.78;5047907;28;20025;-67
2022/07/01 01:22:17;;;;;;;1.50;1.20;;;;;;;29.48;42.13;101185.34;5042234;28;20021;-68
2022/07/01 01:24:44;;;;;;;1.80;1.20;;;;;;;29.47;42.28;101186.31;5047141;28;20563;-68
2022/07/01 01:27:11;;;;;;;2.00;1.23;;;;;;;29.45;42.51;101180.19;5047753;28;20024;-67
2022/07/01 01:29:37;;;;;;;1.67;1.20;;;;;;;29.46;42.53;101194.50;5047959;28;20075;-68
2022/07/01 01:32:05;;;;;;;1.85;1.30;;;;;;;29.45;42.25;101201.69;5047700;28;20045;-68
2022/07/01 01:34:31;;;;;;;1.55;1.15;;;;;;;29.43;42.39;101204.44;5047112;28;20028;-68
2022/07/01 01:36:57;;;;;;;1.55;1.30;;;;;;;29.43;42.56;101203.59;5047924;28;20091;-67
2022/07/01 01:39:22;;;;;;;1.40;1.20;;;;;;;29.43;42.02;101200.91;5050620;28;20090;-67
2022/07/01 01:41:48;;;;;;;1.73;1.30;;;;;;;29.42;42.49;101212.59;5051506;28;20037;-67
2022/07/01 01:44:13;;;;;;;1.50;1.15;;;;;;;29.41;42.48;101216.22;5050592;28;20052;-68
2022/07/01 01:46:39;;;;;;;1.92;1.30;;;;;;;29.40;42.45;101226.09;5051171;28;20115;-68
2022/07/01 01:49:06;;;;;;;1.88;1.30;;;;;;;29.40;42.15;101230.59;5050996;28;20032;-68
2022/07/01 01:51:32;;;;;;;2.40;1.20;;;;;;;29.39;42.29;101229.78;5051175;28;20530;-68
2022/07/01 01:53:58;;;;;;;1.58;1.10;;;;;;;29.38;42.31;101236.09;5048296;28;20040;-68
2022/07/01 01:56:24;;;;;;;1.80;1.20;;;;;;;29.37;42.47;101237.03;5050527;28;20086;-67
2022/07/01 01:58:50;;;;;;;1.83;1.20;;;;;;;29.37;42.08;101255.84;5051486;28;20048;-67
2022/07/01 02:01:17;;;;;;;2.15;1.20;;;;;;;29.35;42.48;101254.19;5051179;28;20029;-68
2022/07/01 02:03:43;;;;;;;1.50;0.90;;;;;;;29.36;42.18;101267.53;5051141;28;20040;-68
2022/07/01 02:06:10;;;;;;;1.50;1.00;;;;;;;29.35;42.12;101273.00;5050147;28;20763;-68
2022/07/01 02:08:37;;;;;;;2.05;1.27;;;;;;;29.33;42.22;101270.44;5045577;28;20121;-68
2022/07/01 02:11:02;;;;;;;1.30;1.10;;;;;;;29.33;42.62;101285.66;5050961;28;20536;-68
2022/07/01 02:13:28;;;;;;;1.50;1.13;;;;;;;29.32;42.47;101279.41;5051021;28;20029;-68
2022/07/01 02:15:54;;;;;;;1.35;1.10;;;;;;;29.31;42.27;101282.16;5035181;28;20033;-68
2022/07/01 02:18:19;;;;;;;1.38;1.10;;;;;;;29.31;42.46;101285.72;5050295;28;20044;-68
2022/07/01 02:20:44;;;;;;;1.40;1.10;;;;;;;29.30;42.18;101285.81;5050505;28;20147;-68
2022/07/01 02:23:10;;;;;;;1.55;1.10;;;;;;;29.29;42.52;101276.88;5050858;28;20065;-68
2022/07/01 02:25:36;;;;;;;1.20;1.00;;;;;;;29.29;42.15;101279.56;5032629;28;20156;-68
2022/07/01 02:28:02;;;;;;;1.55;1.10;;;;;;;29.29;42.65;101273.31;5048769;28;20301;-68
2022/07/01 02:30:28;;;;;;;1.98;1.20;;;;;;;29.28;42.70;101285.00;5050644;28;20036;-68
2022/07/01 02:32:54;;;;;;;1.33;1.10;;;;;;;29.27;42.27;101280.63;5049393;28;20025;-68
2022/07/01 02:35:19;;;;;;;1.42;1.00;;;;;;;29.26;42.47;101279.75;5032715;28;20031;-68
2022/07/01 02:37:45;;;;;;;1.80;1.20;;;;;;;29.26;42.23;101268.13;5050296;28;20029;-67
2022/07/01 02:40:12;;;;;;;1.15;0.95;;;;;;;29.25;42.51;101266.41;5049904;28;20639;-68
2022/07/01 02:42:37;;;;;;;1.63;1.20;;;;;;;29.25;42.44;101278.03;5048637;28;20055;-67
2022/07/01 02:45:04;;;;;;;1.80;1.00;;;;;;;29.24;42.54;101278.09;5050125;28;20037;-67
2022/07/01 02:47:34;;;;;;;1.13;1.02;;;;;;;29.23;42.54;101279.03;5049834;28;20032;-67
2022/07/01 02:50:00;;;;;;;1.23;1.02;;;;;;;29.22;42.40;101286.22;5050044;28;20079;-67
2022/07/01 02:52:25;;;;;;;4.88;1.00;;;;;;;29.22;42.29;101283.56;5050142;28;20542;-67
2022/07/01 02:54:51;;;;;;;1.35;0.90;;;;;;;29.21;42.16;101289.91;5049602;28;20028;-67
2022/07/01 02:57:16;;;;;;;1.15;0.90;;;;;;;29.25;42.12;101290.56;5048704;28;20064;-67
2022/07/01 02:59:41;;;;;;;1.35;0.93;;;;;;;29.25;42.40;101290.56;5049624;28;20115;-68
2022/07/01 03:02:07;;;;;;;1.20;1.00;;;;;;;29.24;42.17;101284.34;5045828;28;20087;-68
2022/07/01 03:04:32;;;;;;;1.20;1.00;;;;;;;29.24;42.19;101278.09;5049087;28;20025;-68
2022/07/01 03:06:58;;;;;;;1.17;0.93;;;;;;;29.23;42.63;101285.28;5046485;28;20025;-68
2022/07/01 03:09:23;;;;;;;1.30;1.00;;;;;;;29.23;42.21;101277.22;5015315;28;20181;-68
2022/07/01 03:11:48;;;;;;;1.25;1.00;;;;;;;29.23;42.15;101271.00;5044285;28;20086;-69
2022/07/01 03:14:14;;;;;;;1.52;1.10;;;;;;;29.22;42.34;101272.81;5049826;28;20036;-68
2022/07/01 03:16:39;;;;;;;1.00;0.90;;;;;;;29.22;42.38;101288.06;5048271;28;20021;-67
2022/07/01 03:19:05;;;;;;;1.75;0.90;;;;;;;29.21;42.09;101291.72;5049042;28;20044;-68
2022/07/01 03:21:31;;;;;;;1.17;1.00;;;;;;;29.21;42.22;101305.16;5048883;28;20025;-68
2022/07/01 03:23:56;;;;;;;1.25;1.00;;;;;;;29.19;42.16;101302.53;5047815;28;20037;-68
2022/07/01 03:26:21;;;;;;;1.40;0.95;;;;;;;29.19;42.48;101315.09;5049332;28;20056;-67
2022/07/01 03:28:47;;;;;;;1.20;1.00;;;;;;;29.18;42.48;101311.53;5047946;28;20065;-67
2022/07/01 03:31:12;;;;;;;1.25;0.93;;;;;;;29.18;42.32;101310.69;5046912;28;20033;-67
2022/07/01 03:33:38;;;;;;;1.52;1.00;;;;;;;29.17;42.60;101312.50;5048870;28;20044;-68
2022/07/01 03:36:03;;;;;;;3.08;1.00;;;;;;;29.16;42.21;101300.00;5048915;28;20040;-68
2022/07/01 03:38:29;;;;;;;1.50;1.08;;;;;;;29.15;42.52;101305.50;5048828;28;20020;-68
2022/07/01 03:40:54;;;;;;;1.05;0.90;;;;;;;29.14;42.59;101293.03;5049244;28;20081;-68
2022/07/01 03:43:19;;;;;;;1.20;0.90;;;;;;;29.10;42.64;101302.19;5049073;28;20049;-67
2022/07/01 03:45:45;;;;;;;1.83;1.00;;;;;;;29.08;42.68;101304.09;5048822;28;20388;-68
2022/07/01 03:48:12;;;;;;;1.30;1.00;;;;;;;29.07;42.27;101294.31;5048203;28;20073;-68
2022/07/01 03:50:37;;;;;;;0.90;0.80;;;;;;;29.06;42.77;101296.13;5048240;28;20479;-68
2022/07/01 03:55:46;;;;;;;;;;;;;;;29.06;42.21;101314.94;5047293;28;20094;-68
2022/07/01 03:58:12;;;;;;;1.00;0.90;;;;;;;29.06;42.72;101309.56;5048706;28;20006;-68
2022/07/01 04:00:38;;;;;;;1.13;0.90;;;;;;;29.04;42.33;101311.44;5047989;28;20410;-67
2022/07/01 04:03:04;;;;;;;1.02;0.93;;;;;;;29.03;42.27;101312.44;5048119;28;20036;-68
2022/07/01 04:05:34;;;;;;;1.15;1.00;;;;;;;29.01;42.41;101320.56;5046548;28;20035;-68
2022/07/01 04:08:00;;;;;;;1.45;1.00;;;;;;;29.00;42.57;101312.59;5045632;28;20017;-68
2022/07/01 04:10:25;;;;;;;1.33;0.90;;;;;;;29.00;42.49;101320.63;5047529;28;20765;-68
2022/07/01 04:12:51;;;;;;;1.40;0.93;;;;;;;28.99;42.35;101329.63;5048210;28;20044;-67
2022/07/01 04:15:17;;;;;;;1.15;0.90;;;;;;;28.99;42.33;101340.38;5048578;28;20507;-68
2022/07/01 04:17:43;;;;;;;1.17;0.90;;;;;;;28.98;42.43;101344.88;5047119;28;20120;-68
2022/07/01 04:20:08;;;;;;;1.42;1.00;;;;;;;28.97;42.75;101358.41;5047736;28;20154;-68
2022/07/01 04:22:35;;;;;;;1.02;0.90;;;;;;;28.97;42.75;101363.78;5048402;28;20207;-68
2022/07/01 04:25:03;;;;;;;1.00;0.90;;;;;;;28.96;42.50;101362.03;5030887;28;20032;-68
2022/07/01 04:27:28;;;;;;;1.20;1.00;;;;;;;28.94;42.26;101346.00;5048265;28;20380;-68
2022/07/01 04:29:54;;;;;;;1.40;0.98;;;;;;;28.95;42.50;101347.75;5048457;28;20039;-68
2022/07/01 04:32:19;;;;;;;1.00;0.90;;;;;;;28.94;42.69;101348.69;5046389;28;20110;-68
2022/07/01 04:34:45;;;;;;;1.20;1.00;;;;;;;28.94;42.37;101363.94;5047099;28;20033;-68
2022/07/01 04:37:10;;;;;;;1.75;0.90;;;;;;;28.94;42.65;101366.63;5046907;28;20470;-68
2022/07/01 04:39:35;;;;;;;1.58;1.10;;;;;;;28.93;42.68;101365.75;5048343;28;20028;-68
2022/07/01 04:42:01;;;;;;;1.10;0.90;;;;;;;28.94;42.69;101374.66;5047723;28;20033;-69
2022/07/01 04:44:37;;;;;;;1.42;1.00;;;;;;;28.92;42.66;101380.13;5047780;28;20043;-67
2022/07/01 04:47:03;;;;;;;1.30;1.00;;;;;;;28.93;42.59;101376.47;5048063;28;20534;-68
2022/07/01 04:49:29;;;;;;;1.15;0.85;;;;;;;28.92;42.54;101376.56;5013818;28;20025;-67
2022/07/01 04:51:55;;;;;;;1.48;1.08;;;;;;;28.91;42.18;101381.06;5047332;28;20029;-68
2022/07/01 04:54:21;;;;;;;1.20;1.10;;;;;;;28.90;42.67;101387.41;5045868;28;20021;-68
2022/07/01 04:56:47;;;;;;;1.10;1.00;;;;;;;28.90;42.60;101378.47;5048088;28;20029;-67
2022/07/01 04:59:14;;;;;;;1.15;1.00;;;;;;;28.89;42.58;101380.31;5047625;28;20040;-67
2022/07/01 05:01:41;;;;;;;1.38;1.10;;;;;;;28.88;42.18;101378.56;5046756;28;20029;-68
2022/07/01 05:04:06;;;;;;;1.10;1.00;;;;;;;28.88;42.35;101375.88;5046489;28;20036;-68
2022/07/01 05:06:33;;;;;;;1.33;1.00;;;;;;;28.88;42.37;101377.69;5047513;28;20025;-67
2022/07/01 05:08:59;;;;;;;1.10;1.00;;;;;;;28.86;42.61;101380.44;5044219;28;21877;-67
2022/07/01 05:11:24;;;;;;;1.20;1.00;;;;;;;28.86;42.45;101387.63;5047708;28;20031;-68
2022/07/01 05:13:50;;;;;;;1.10;0.90;;;;;;;28.86;42.54;101391.19;5050316;28;20037;-68
2022/07/01 05:16:15;;;;;;;1.13;0.90;;;;;;;28.85;42.75;101399.34;5051474;28;20032;-67
2022/07/01 05:24:08;;;;;;;1.20;1.05;;;;;;;28.83;42.27;101394.06;5051930;28;20052;-68
2022/07/01 05:26:34;;;;;;;1.10;1.00;;;;;;;28.83;42.62;101396.75;5051118;28;20029;-68
2022/07/01 05:28:59;;;;;;;1.42;1.00;;;;;;;28.83;42.17;101402.09;5051165;28;20111;-67
2022/07/01 05:31:25;;;;;;;1.33;1.00;;;;;;;28.82;42.15;101402.19;5033589;28;20040;-67
2022/07/01 05:33:50;;;;;;;1.42;1.27;;;;;;;28.82;42.63;101412.91;5049952;28;20029;-67
2022/07/01 05:36:16;;;;;;;1.40;1.10;;;;;;;28.80;42.19;101413.00;5051444;28;20029;-69
2022/07/01 05:38:41;;;;;;;1.20;1.10;;;;;;;28.80;42.53;101413.00;5050957;28;20531;-68
2022/07/01 05:41:07;;;;;;;1.60;1.40;;;;;;;28.79;42.27;101419.31;5049533;28;20541;-66
2022/07/01 05:43:33;;;;;;;1.70;1.40;;;;;;;28.80;42.53;101420.16;5051142;28;20045;-70
2022/07/01 05:45:58;;;;;;;1.73;1.30;;;;;;;28.76;42.66;101411.44;5050975;28;20498;-68
2022/07/01 05:48:24;;;;;;;1.35;1.13;;;;;;;28.75;42.23;101406.13;5051320;28;20021;-68
2022/07/01 05:50:50;;;;;;;1.50;1.10;;;;;;;28.74;42.71;101410.63;5050364;28;20064;-67
2022/07/01 05:53:15;;;;;;;1.58;1.35;;;;;;;28.74;42.65;101413.31;5050919;28;20044;-67
2022/07/01 05:55:41;;;;;;;1.33;1.02;;;;;;;28.74;42.36;101409.75;5049140;28;20021;-68
2022/07/01 05:58:08;;;;;;;1.27;1.15;;;;;;;28.73;42.35;101410.72;5049263;28;20064;-67
2022/07/01 06:00:34;;;;;;;1.50;1.20;;;;;;;28.72;42.46;101417.03;5051148;28;20025;-68
2022/07/01 06:02:59;;;;;;;1.52;1.27;;;;;;;28.71;42.76;101410.78;5050244;28;20148;-68
2022/07/01 06:05:24;;;;;;;1.30;1.20;;;;;;;28.71;42.75;101416.16;5051026;28;20467;-68
2022/07/01 06:07:50;;;;;;;2.28;1.23;;;;;;;28.71;42.44;101418.84;5048414;28;20087;-68
2022/07/01 06:10:15;;;;;;;2.22;1.23;;;;;;;28.72;42.79;101422.38;5049541;28;20032;-68
2022/07/01 06:12:41;;;;;;;1.55;1.20;;;;;;;28.71;42.50;101421.50;5050696;28;20116;-68
2022/07/01 06:15:08;;;;;;;1.40;1.30;;;;;;;28.72;42.99;101417.03;5050128;28;20048;-68
2022/07/01 06:17:35;;;;;;;1.50;1.30;;;;;;;28.71;42.53;101423.34;5050675;28;20403;-68
2022/07/01 06:20:00;;;;;;;1.88;1.30;;;;;;;28.72;42.73;101425.06;5049114;28;20040;-68
2022/07/01 06:22:25;;;;;;;1.58;1.30;;;;;;;28.72;42.67;101419.69;5050584;28;20032;-68
2022/07/01 06:24:51;;;;;;;1.42;1.30;;;;;;;28.71;43.12;101415.28;5049284;28;20123;-70
2022/07/01 06:27:16;;;;;;;1.60;1.40;;;;;;;28.70;42.89;101411.72;5050684;28;20410;-70
2022/07/01 06:29:41;;;;;;;1.60;1.40;;;;;;;28.70;42.75;101416.22;5049219;28;20604;-69
2022/07/01 06:32:07;;;;;;;1.60;1.50;;;;;;;28.71;42.89;101407.22;5050328;28;20064;-69
2022/07/01 06:34:34;;;;;;;2.88;1.40;;;;;;;28.70;42.71;101410.84;5049895;28;20098;-69
2022/07/01 06:37:00;;;;;;;1.88;1.50;;;;;;;28.70;42.92;101408.16;5050563;28;20415;-68
2022/07/01 06:39:26;;;;;;;1.90;1.50;;;;;;;28.70;42.68;101405.50;5050268;28;20032;-69
2022/07/01 06:41:51;;;;;;;1.70;1.50;;;;;;;28.69;42.53;101410.00;5050363;28;20052;-68
2022/07/01 06:44:17;;;;;;;2.20;1.50;;;;;;;28.69;42.95;101407.31;5049261;28;20041;-68
2022/07/01 06:46:42;;;;;;;1.63;1.50;;;;;;;28.70;42.46;101408.16;5048676;28;20083;-69
2022/07/01 06:49:08;;;;;;;1.85;1.60;;;;;;;28.69;42.89;101399.25;5048702;28;20039;-67
2022/07/01 06:51:33;;;;;;;1.55;1.45;;;;;;;28.67;42.41;101399.31;5041717;28;20088;-67
2022/07/01 06:53:58;;;;;;;1.70;1.48;;;;;;;28.68;42.64;101408.25;5043392;28;20116;-67
2022/07/01 06:56:24;;;;;;;1.83;1.60;;;;;;;28.67;42.81;101409.19;5048893;28;20017;-69
2022/07/01 06:58:49;;;;;;;1.70;1.50;;;;;;;28.66;42.86;101415.53;5045113;28;20059;-69
2022/07/01 07:01:16;;;;;;;2.47;1.58;;;;;;;28.67;42.81;101417.25;5031719;28;20044;-69
2022/07/01 07:03:41;;;;;;;2.92;1.65;;;;;;;28.67;43.21;101432.50;5044807;28;20029;-70
2022/07/01 07:06:06;;;;;;;5.10;1.77;;;;;;;28.67;43.16;101445.91;5049454;28;20086;-71
2022/07/01 07:08:32;;;;;;;2.55;1.73;;;;;;;28.68;43.46;101448.50;5049559;28;20037;-71
2022/07/01 07:10:58;;;;;;;3.05;1.75;;;;;;;28.70;43.32;101443.06;5048361;28;20083;-70
2022/07/01 07:13:24;;;;;;;1.90;1.60;;;;;;;28.70;43.55;101443.94;5048243;28;20033;-70
2022/07/01 07:15:50;;;;;;;3.60;1.90;;;;;;;28.72;43.40;101447.41;5048639;28;20108;-70
2022/07/01 07:18:16;;;;;;;6.28;1.92;;;;;;;28.61;43.92;101439.03;5049549;28;20036;-71
2022/07/01 07:20:41;;;;;;;2.33;1.90;;;;;;;28.64;43.94;101433.53;5048651;28;20143;-71
2022/07/01 07:23:07;;;;;;;3.80;1.85;;;;;;;28.64;44.16;101439.75;5031395;28;20049;-71
2022/07/01 07:25:32;;;;;;;3.30;1.80;;;;;;;28.66;44.14;101442.38;5044936;28;20060;-71
2022/07/01 07:27:57;;;;;;;3.95;2.30;;;;;;;28.69;43.99;101450.25;5047354;28;20124;-70
2022/07/01 07:30:23;;;;;;;2.38;1.80;;;;;;;28.71;44.42;101451.03;5048535;28;20032;-70
2022/07/01 07:32:49;;;;;;;2.92;2.00;;;;;;;28.73;44.13;101453.66;5049178;28;20035;-70
2022/07/01 07:35:14;;;;;;;4.63;2.10;;;;;;;28.67;44.89;101455.69;5048369;28;20029;-76
2022/07/01 07:37:40;;;;;;;5.25;2.13;;;;;;;28.77;44.74;101449.88;5046625;28;20025;-71
2022/07/01 07:40:09;;;;;;;5.50;1.90;;;;;;;28.78;44.88;101441.75;5032525;28;20032;-71
2022/07/01 07:42:36;;;;;;;2.95;1.90;;;;;;;28.82;44.37;101443.31;5040222;28;20046;-71
2022/07/01 07:45:02;;;;;;;2.65;2.08;;;;;;;28.88;44.66;101455.53;5050440;28;20041;-74
2022/07/01 07:47:28;;;;;;;3.45;2.20;;;;;;;29.07;44.03;101460.78;5045964;28;20032;-74
2022/07/01 07:49:53;;;;;;;2.65;2.20;;;;;;;29.14;43.41;101455.00;5048279;28;20041;-72
2022/07/01 07:52:19;;;;;;;4.05;2.20;;;;;;;29.15;43.79;101461.22;5052575;28;20021;-72
2022/07/01 07:54:44;;;;;;;4.93;2.10;;;;;;;29.21;43.24;101458.22;5052551;28;20111;-74
2022/07/01 07:57:09;;;;;;;2.70;1.95;;;;;;;29.22;43.71;101457.22;5034444;28;20029;-74
2022/07/01 07:59:35;;;;;;;2.60;2.08;;;;;;;29.23;43.33;101461.66;5050726;28;20028;-74
2022/07/01 08:02:01;;;;;;;2.40;2.00;;;;;;;29.22;43.25;101470.66;5047233;28;20083;-72
2022/07/01 08:04:26;;;;;;;4.38;2.08;;;;;;;29.26;43.08;101469.56;5040783;28;20029;-73
2022/07/01 08:06:52;;;;;;;2.55;2.20;;;;;;;29.29;42.90;101469.38;5047215;28;20082;-73
2022/07/01 08:09:18;;;;;;;4.15;2.17;;;;;;;29.28;42.66;101476.56;5049737;28;20099;-71
2022/07/01 08:11:43;;;;;;;5.78;2.85;;;;;;;29.20;43.19;101480.63;5051510;28;20025;-67
2022/07/01 08:14:09;;;;;;;8.63;3.00;;;;;;;29.28;43.10;101489.13;5050632;28;20045;-67
2022/07/01 08:16:35;;;;;;;6.53;2.88;;;;;;;29.38;42.69;101485.03;5051577;28;20032;-68
2022/07/01 08:19:02;;;;;;;11.35;2.95;;;;;;;29.21;43.18;101488.63;5051965;28;20107;-71
2022/07/01 08:21:27;;;;;;;5.40;3.10;;;;;;;29.38;42.59;101485.91;5052068;28;20028;-71
2022/07/01 08:23:52;;;;;;;5.15;2.80;;;;;;;29.28;42.68;101491.81;5052870;28;20090;-69
2022/07/01 08:26:18;;;;;;;6.15;2.90;;;;;;;29.37;42.67;101485.97;5047967;28;20479;-73
2022/07/01 08:28:44;;;;;;;9.55;2.78;;;;;;;29.39;42.73;101486.78;5032111;28;20040;-72
2022/07/01 08:31:10;;;;;;;3.17;2.47;;;;;;;29.25;42.90;101484.81;5050257;28;20570;-72
2022/07/01 08:33:37;;;;;;;5.53;2.38;;;;;;;29.27;43.32;101490.09;5049722;28;20025;-71
2022/07/01 08:36:04;;;;;;;6.22;2.70;;;;;;;29.29;42.83;101494.41;5047473;28;20068;-72
2022/07/01 08:38:29;;;;;;;6.05;2.70;;;;;;;29.34;42.79;101494.19;5048753;28;20551;-73
2022/07/01 08:40:55;;;;;;;4.38;2.60;;;;;;;29.38;42.93;101493.09;5050726;28;20025;-72
2022/07/01 08:43:20;;;;;;;4.22;2.67;;;;;;;29.22;42.93;101489.47;5046613;28;20422;-73
2022/07/01 08:45:47;;;;;;;3.95;2.42;;;;;;;29.22;43.22;101484.09;5047227;28;20148;-72
2022/07/01 08:48:13;;;;;;;4.35;2.33;;;;;;;29.25;43.36;101487.50;5054963;28;20045;-72
2022/07/01 08:50:40;;;;;;;4.50;2.70;;;;;;;29.32;43.21;101491.59;5056826;28;20033;-73
2022/07/01 08:53:10;;;;;;;5.43;2.92;;;;;;;29.31;42.78;101497.91;5058140;28;20044;-71
2022/07/01 08:58:21;;;;;;;5.97;2.97;;;;;;;29.07;43.73;101482.25;5046216;28;20102;-75
2022/07/01 09:00:46;;;;;;;12.35;2.90;;;;;;;29.39;43.19;101492.16;5053250;28;20120;-74
2022/07/01 09:03:12;;;;;;;5.18;2.70;;;;;;;29.36;43.55;101500.34;5054859;28;20111;-75
2022/07/01 09:05:37;;;;;;;3.35;2.78;;;;;;;29.27;43.39;101490.97;5056431;28;20052;-75
2022/07/01 09:08:06;;;;;;;4.25;2.50;;;;;;;29.30;43.57;101498.84;5054277;28;20086;-74
2022/07/01 09:10:36;;;;;;;4.90;2.70;;;;;;;29.32;43.42;101504.16;5056236;28;20540;-74
2022/07/01 09:13:09;;;;;;;6.10;2.80;;;;;;;29.35;43.67;101512.03;5056280;28;20544;-75
2022/07/01 09:15:35;;;;;;;;;;;;;;;29.34;43.68;101516.56;5055140;28;20031;-72
2022/07/01 09:18:14;;;;;;;5.20;2.60;;;;;;;29.35;43.68;101517.41;5053699;28;19916;-75
2022/07/01 09:20:43;;;;;;;8.10;2.70;;;;;;;29.47;43.06;101516.75;5054313;28;20390;-74
2022/07/01 09:23:17;;;;;;;6.13;2.67;;;;;;;29.44;44.83;101520.50;5054669;28;20399;-72
2022/07/01 09:25:44;;;;;;;4.32;2.70;;;;;;;29.44;43.69;101517.81;5053151;28;20106;-71
2022/07/01 09:28:12;;;;;;;5.53;2.70;;;;;;;29.45;44.73;101518.66;5053662;28;20033;-71
2022/07/01 09:30:38;;;;;;;5.93;2.60;;;;;;;29.45;43.54;101513.28;5058681;28;20096;-71
2022/07/01 09:33:11;;;;;;;2.80;2.50;;;;;;;29.43;43.43;101520.56;5054132;28;20056;-74
2022/07/01 09:35:36;;;;;;;5.35;2.80;;;;;;;29.70;43.53;101527.06;5055644;28;20024;-70
2022/07/01 09:38:03;;;;;;;12.32;2.80;;;;;;;29.79;42.86;101536.47;5052904;28;20387;-76
2022/07/01 09:40:57;;;;;;;9.23;2.78;;;;;;;29.83;42.76;101535.31;5054947;28;20106;-77
2022/07/01 09:43:24;;;;;;;5.82;2.63;;;;;;;29.90;43.39;101554.66;5052455;28;20105;-75
2022/07/01 09:45:56;;;;;;;6.95;2.72;;;;;;;29.91;43.01;101543.88;5054269;28;20116;-74
2022/07/01 09:48:23;;;;;;;7.13;2.60;;;;;;;30.01;43.18;101553.13;5054764;28;20033;-79
2022/07/01 09:50:49;;;;;;;6.18;2.60;;;;;;;30.04;42.85;101534.16;5048970;28;20059;-75
2022/07/01 09:53:14;;;;;;;6.10;2.50;;;;;;;29.93;42.77;101544.66;5052759;28;20115;-74
2022/07/01 09:55:40;;;;;;;4.25;2.47;;;;;;;30.01;43.14;101545.06;5048638;28;20053;-76
2022/07/01 09:58:06;;;;;;;3.78;2.70;;;;;;;29.95;43.44;101552.63;5052362;28;20112;-74
2022/07/01 10:00:33;;;;;;;4.75;2.60;;;;;;;30.00;43.36;101554.13;5048922;28;20388;-73
2022/07/01 10:03:01;;;;;;;5.40;2.35;;;;;;;29.99;43.11;101554.19;5049041;28;20021;-77
2022/07/01 10:05:28;;;;;;;4.85;2.30;;;;;;;29.97;43.49;101558.78;5049936;28;20043;-81
2022/07/01 10:08:31;;;;;;;6.95;2.42;;;;;;;30.06;42.75;101553.75;5053118;28;20024;-81
2022/07/01 10:11:37;;;;;;;6.07;2.70;;;;;;;30.05;42.18;101546.66;5052257;28;20788;-80
2022/07/01 10:14:07;;;;;;;5.85;2.53;;;;;;;29.95;42.70;101544.56;5051757;28;20040;-80
2022/07/01 10:16:34;;;;;;;4.43;2.60;;;;;;;30.03;42.30;101548.53;5050225;28;20033;-78
2022/07/01 10:19:24;;;;;;;7.63;2.53;;;;;;;30.02;42.41;101549.50;5051119;28;20033;-75
2022/07/01 10:21:51;;;;;;;3.90;2.22;;;;;;;29.88;42.32;101548.53;5047391;28;20029;-75
2022/07/01 10:24:18;;;;;;;4.72;2.60;;;;;;;29.92;42.29;101542.91;5047838;28;20037;-75
2022/07/01 10:26:45;;;;;;;5.43;3.05;;;;;;;29.76;40.67;101547.41;5049923;28;20515;-75
2022/07/01 10:29:36;;;;;;;5.65;3.35;;;;;;;29.79;39.49;101542.69;5049366;28;20025;-75
2022/07/01 10:32:11;;;;;;;7.53;3.53;;;;;;;29.71;38.54;101536.88;5049400;28;20095;-74
2022/07/01 10:34:41;;;;;;;6.00;3.50;;;;;;;29.70;37.38;101545.88;5048577;28;20120;-75
2022/07/01 10:37:09;;;;;;;9.70;3.70;;;;;;;29.70;36.82;101534.31;5049651;28;20052;-74
2022/07/01 10:40:00;;;;;;;9.88;3.25;;;;;;;29.48;36.97;101539.97;5048844;28;20778;-74
2022/07/01 10:42:56;;;;;;;10.57;3.30;;;;;;;29.24;37.45;101539.47;5036680;28;20049;-72
2022/07/01 10:45:21;;;;;;;7.63;3.15;;;;;;;29.24;37.25;101539.47;5044117;28;20030;-68
2022/07/01 10:47:46;;;;;;;5.20;3.00;;;;;;;29.25;38.45;101545.72;5050717;28;20043;-71
2022/07/01 10:50:16;;;;;;;4.45;2.80;;;;;;;29.33;38.36;101552.44;5054237;28;20103;-71
2022/07/01 10:53:01;;;;;;;6.78;3.00;;;;;;;29.35;38.78;101547.84;5054374;28;20025;-70
2022/07/01 10:55:43;;;;;;;4.93;3.00;;;;;;;29.33;38.62;101540.84;5035760;28;20037;-70
2022/07/01 10:58:09;;;;;;;6.38;2.85;;;;;;;29.37;38.64;101534.34;5054095;28;20109;-71
2022/07/01 11:00:36;;;;;;;5.05;2.70;;;;;;;29.40;38.65;101544.91;5053009;28;20033;-73
2022/07/01 11:03:16;;;;;;;5.75;2.80;;;;;;;29.42;38.35;101548.38;5053798;28;20375;-71
2022/07/01 11:05:43;;;;;;;5.63;2.97;;;;;;;29.51;38.29;101537.13;5049550;28;20112;-77
2022/07/01 11:08:09;;;;;;;5.47;2.63;;;;;;;29.57;38.08;101542.19;5052064;28;20021;-76
2022/07/01 11:10:35;;;;;;;8.70;2.80;;;;;;;29.58;38.54;101540.34;5045279;28;20045;-71
2022/07/01 11:13:01;;;;;;;5.78;2.70;;;;;;;29.58;38.26;101541.19;5046146;28;20132;-69
2022/07/01 11:15:29;;;;;;;6.40;2.67;;;;;;;29.55;38.72;101540.50;5053130;28;20025;-71
2022/07/01 11:17:56;;;;;;;4.50;2.83;;;;;;;29.53;38.77;101529.84;5050550;28;20474;-70
2022/07/01 11:20:23;;;;;;;4.80;2.30;;;;;;;29.40;39.18;101521.59;5048834;28;20063;-72
2022/07/01 11:22:49;;;;;;;4.25;2.65;;;;;;;29.44;39.09;101527.69;5053007;28;20029;-73
2022/07/01 11:25:18;;;;;;;5.90;2.60;;;;;;;29.60;38.67;101527.69;5052646;28;20033;-73
2022/07/01 11:27:49;;;;;;;6.50;2.60;;;;;;;29.57;38.32;101522.50;5050968;28;20037;-71
2022/07/01 11:30:16;;;;;;;3.63;2.33;;;;;;;29.68;37.67;101528.13;5052282;28;20131;-73
2022/07/01 11:32:48;;;;;;;3.85;2.53;;;;;;;29.69;38.32;101536.13;5052759;28;20041;-76
2022/07/01 11:41:03;;;;;;;5.78;2.40;;;;;;;29.75;37.54;101542.97;5035414;28;20060;-79
2022/07/01 11:43:32;;;;;;;8.43;2.20;;;;;;;29.80;37.21;101539.06;5050877;28;20049;-77